createdAt,value
2023-02-16T00:00:12.589Z,4.40
2023-02-16T00:01:12.899Z,4.31
2023-02-16T00:02:12.949Z,4.12
2023-02-16T00:03:13.085Z,4.31
2023-02-16T00:04:13.217Z,4.28
2023-02-16T00:05:13.395Z,4.92
2023-02-16T00:06:13.547Z,4.42
2023-02-16T00:07:13.723Z,2.77
2023-02-16T00:08:13.996Z,3.27
2023-02-16T00:09:14.139Z,3.54
2023-02-16T00:10:14.292Z,2.96
2023-02-16T00:11:14.413Z,2.73
2023-02-16T00:12:14.522Z,2.54
2023-02-16T00:13:14.638Z,2.40
2023-02-16T00:14:14.763Z,2.33
2023-02-16T00:15:14.882Z,2.24
2023-02-16T00:16:15.015Z,2.26
2023-02-16T00:17:15.067Z,3.11
2023-02-16T00:18:15.201Z,2.07
2023-02-16T00:19:15.296Z,2.74
2023-02-16T00:20:15.394Z,2.38
2023-02-16T00:40:17.879Z,2.47
2023-02-16T00:41:18.012Z,2.57
2023-02-16T00:42:18.100Z,2.75
2023-02-16T00:43:18.196Z,2.60
2023-02-16T00:44:18.299Z,3.87
2023-02-16T00:45:18.418Z,4.00
2023-02-16T00:46:18.642Z,3.86
2023-02-16T00:47:18.727Z,4.21
2023-02-16T00:48:18.857Z,4.36
2023-02-16T00:49:19.052Z,3.25
2023-02-16T00:50:19.222Z,2.99
2023-02-16T00:51:25.870Z,2.80
2023-02-16T00:52:20.492Z,2.94
2023-02-16T00:53:19.593Z,2.78
2023-02-16T00:54:19.693Z,2.36
2023-02-16T01:56:27.809Z,2.07
2023-02-16T01:57:27.954Z,1.72
2023-02-16T01:58:28.076Z,1.24
2023-02-16T01:59:28.221Z,2.17
2023-02-16T02:00:28.319Z,1.59
2023-02-16T02:01:28.453Z,1.70
2023-02-16T02:02:28.567Z,1.59
2023-02-16T02:03:28.645Z,1.68
2023-02-16T02:04:28.777Z,1.46
2023-02-16T02:05:28.908Z,1.47
2023-02-16T02:06:29.060Z,1.47
2023-02-16T02:07:29.194Z,1.25
2023-02-16T02:08:29.313Z,1.51
2023-02-16T02:09:29.446Z,1.46
2023-02-16T02:10:29.587Z,1.21
2023-02-16T02:11:29.729Z,2.46
2023-02-16T02:12:29.876Z,3.10
2023-02-16T02:13:30.006Z,2.83
2023-02-16T02:14:30.165Z,3.42
2023-02-16T02:15:30.322Z,3.27
2023-02-16T02:16:30.551Z,3.55
2023-02-16T02:17:30.644Z,4.33
2023-02-16T02:18:30.855Z,4.79
2023-02-16T02:19:31.061Z,4.91
2023-02-16T02:20:31.237Z,2.96
2023-02-16T02:21:31.450Z,3.36
2023-02-16T02:22:31.629Z,2.37
2023-02-16T02:23:31.782Z,2.33
2023-02-16T02:56:37.907Z,2.81
2023-02-16T02:57:38.071Z,2.94
2023-02-16T02:58:38.230Z,2.96
2023-02-16T02:59:38.356Z,3.49
2023-02-16T03:00:38.584Z,3.35
2023-02-16T03:01:38.687Z,3.21
2023-02-16T04:02:47.831Z,1.23
2023-02-16T04:03:47.981Z,1.10
2023-02-16T04:04:48.040Z,1.29
2023-02-16T04:05:48.137Z,1.24
2023-02-16T04:06:48.229Z,1.16
2023-02-16T04:07:48.335Z,2.16
2023-02-16T04:08:48.453Z,2.56
2023-02-16T04:09:48.589Z,2.37
2023-02-16T04:10:48.733Z,2.63
2023-02-16T04:11:48.897Z,2.43
2023-02-16T04:12:49.016Z,2.27
2023-02-16T04:13:49.146Z,2.08
2023-02-16T04:14:49.230Z,1.46
2023-02-16T04:15:49.338Z,1.54
2023-02-16T04:16:49.471Z,1.64
2023-02-16T04:17:49.587Z,1.45
2023-02-16T04:18:49.698Z,1.29
2023-02-16T04:19:49.788Z,1.30
2023-02-16T05:08:57.923Z,1.32
2023-02-16T05:09:58.039Z,1.79
2023-02-16T05:10:58.135Z,1.59
2023-02-16T05:11:58.234Z,1.67
2023-02-16T05:12:58.338Z,1.63
2023-02-16T05:13:58.461Z,1.55
2023-02-16T05:14:58.585Z,1.55
2023-02-16T05:15:58.753Z,1.33
2023-02-16T05:16:58.796Z,1.40
2023-02-16T05:17:58.908Z,1.30
2023-02-16T05:18:59.056Z,1.50
2023-02-16T05:19:59.160Z,1.29
2023-02-16T05:20:59.288Z,1.38
2023-02-16T05:21:59.384Z,1.44
2023-02-16T05:22:59.533Z,1.98
2023-02-16T05:23:59.630Z,4.32
2023-02-16T05:24:59.723Z,5.97
2023-02-16T05:25:59.823Z,6.38
2023-02-16T05:26:59.922Z,6.87
2023-02-16T05:28:00.042Z,5.56
2023-02-16T05:29:00.114Z,4.64
2023-02-16T05:30:00.260Z,6.77
2023-02-16T05:31:00.405Z,4.35
2023-02-16T05:32:02.557Z,3.48
2023-02-16T05:33:00.515Z,6.56
2023-02-16T05:34:00.616Z,7.68
2023-02-16T05:35:00.693Z,8.13
2023-02-16T05:36:00.787Z,8.50
2023-02-16T05:37:00.885Z,6.79
2023-02-16T05:38:00.965Z,5.37
2023-02-16T05:39:01.052Z,4.90
2023-02-16T05:40:01.148Z,5.63
2023-02-16T05:41:01.400Z,5.16
2023-02-16T05:42:01.337Z,5.09
2023-02-16T05:43:01.422Z,5.38
2023-02-16T05:44:01.517Z,3.98
2023-02-16T05:45:01.608Z,4.13
2023-02-16T05:46:01.739Z,4.45
2023-02-16T05:47:01.790Z,3.98
2023-02-16T05:48:01.884Z,3.75
2023-02-16T05:49:01.970Z,4.60
2023-02-16T05:50:02.069Z,4.31
2023-02-16T05:51:02.741Z,3.62
2023-02-16T05:52:02.259Z,4.57
2023-02-16T05:53:02.365Z,4.00
2023-02-16T05:54:02.438Z,4.14
2023-02-16T05:55:02.526Z,3.79
2023-02-16T05:56:02.620Z,4.14
2023-02-16T05:57:02.723Z,3.82
2023-02-16T05:58:02.803Z,3.61
2023-02-16T05:59:02.892Z,3.47
2023-02-16T06:00:02.999Z,3.08
2023-02-16T06:01:03.448Z,3.27
2023-02-16T06:02:03.171Z,2.91
2023-02-16T06:03:03.265Z,2.75
2023-02-16T06:04:03.405Z,2.66
2023-02-16T06:05:03.458Z,2.09
2023-02-16T06:06:03.555Z,3.16
2023-02-16T06:07:03.671Z,3.00
2023-02-16T06:08:03.751Z,3.38
2023-02-16T06:09:03.842Z,3.10
2023-02-16T06:10:03.927Z,3.70
2023-02-16T06:11:04.437Z,3.44
2023-02-16T06:12:04.187Z,4.96
2023-02-16T06:13:04.284Z,4.11
2023-02-16T06:14:04.392Z,3.90
2023-02-16T06:15:04.465Z,3.96
2023-02-16T06:16:04.616Z,3.97
2023-02-16T06:17:04.673Z,4.35
2023-02-16T06:18:04.767Z,3.54
2023-02-16T06:19:04.879Z,4.17
2023-02-16T06:20:04.972Z,3.96
2023-02-16T06:21:05.375Z,5.86
2023-02-16T06:22:05.175Z,6.34
2023-02-16T06:23:05.273Z,4.39
2023-02-16T06:25:05.493Z,4.78
2023-02-16T06:26:05.585Z,4.06
2023-02-16T06:27:05.714Z,4.60
2023-02-16T06:28:05.876Z,4.51
2023-02-16T06:30:06.262Z,4.67
2023-02-16T06:31:06.868Z,4.49
2023-02-16T06:41:07.947Z,2.35
2023-02-16T06:42:08.101Z,2.46
2023-02-16T06:43:08.253Z,2.49
2023-02-16T06:44:08.388Z,2.69
2023-02-16T06:45:08.525Z,1.88
2023-02-16T06:46:08.694Z,2.40
2023-02-16T06:47:08.811Z,2.35
2023-02-16T06:48:08.974Z,2.17
2023-02-16T06:49:09.147Z,2.56
2023-02-16T07:44:17.944Z,5.03
2023-02-16T07:45:18.110Z,4.20
2023-02-16T07:46:18.257Z,3.91
2023-02-16T07:47:18.431Z,3.58
2023-02-16T07:48:18.613Z,3.56
2023-02-16T07:49:18.782Z,3.11
2023-02-16T07:50:18.948Z,3.25
2023-02-16T07:51:19.089Z,3.83
2023-02-16T07:52:19.216Z,3.95
2023-02-16T07:53:19.352Z,6.24
2023-02-16T07:54:19.485Z,5.78
2023-02-16T07:55:19.630Z,3.40
2023-02-16T07:56:19.759Z,2.46
2023-02-16T07:57:19.887Z,3.17
2023-02-16T07:58:19.995Z,3.95
2023-02-16T07:59:20.129Z,2.67
2023-02-16T08:00:20.284Z,2.59
2023-02-16T08:01:20.431Z,2.55
2023-02-16T08:02:20.627Z,2.41
2023-02-16T08:03:20.864Z,4.88
2023-02-16T08:04:20.829Z,2.90
2023-02-16T08:05:20.947Z,2.41
2023-02-16T08:06:21.031Z,3.38
2023-02-16T08:07:21.138Z,4.13
2023-02-16T08:08:21.309Z,5.72
2023-02-16T08:17:22.629Z,3.72
2023-02-16T08:21:23.173Z,5.33
2023-02-16T08:50:27.861Z,1.94
2023-02-16T08:51:27.968Z,1.90
2023-02-16T08:52:28.087Z,1.67
2023-02-16T08:53:28.193Z,1.88
2023-02-16T08:54:28.327Z,1.86
2023-02-16T08:55:28.447Z,2.17
2023-02-16T08:56:28.580Z,1.98
2023-02-16T08:57:28.707Z,2.63
2023-02-16T08:58:28.828Z,1.69
2023-02-16T08:59:29.183Z,2.44
2023-02-16T09:00:29.105Z,3.15
2023-02-16T09:01:29.264Z,2.14
2023-02-16T09:02:29.377Z,2.00
2023-02-16T09:03:29.503Z,1.88
2023-02-16T09:04:29.675Z,2.30
2023-02-16T09:05:29.778Z,2.15
2023-02-16T09:06:29.906Z,3.33
2023-02-16T09:07:30.042Z,2.19
2023-02-16T09:08:30.219Z,2.27
2023-02-16T09:09:30.326Z,3.09
2023-02-16T09:10:30.425Z,2.37
2023-02-16T09:11:30.520Z,2.31
2023-02-16T09:12:30.611Z,2.84
2023-02-16T09:13:30.695Z,3.60
2023-02-16T09:14:30.739Z,4.04
2023-02-16T09:15:30.884Z,3.73
2023-02-16T09:16:31.033Z,3.25
2023-02-16T09:17:31.115Z,3.98
2023-02-16T09:18:31.251Z,4.27
2023-02-16T09:19:31.387Z,2.80
2023-02-16T09:20:31.522Z,3.16
2023-02-16T09:21:31.640Z,3.58
2023-02-16T09:22:31.770Z,4.10
2023-02-16T09:23:31.916Z,3.21
2023-02-16T09:24:32.042Z,3.34
2023-02-16T09:25:32.176Z,3.04
2023-02-16T09:26:32.313Z,2.40
2023-02-16T09:27:32.453Z,4.25
2023-02-16T09:28:32.567Z,4.04
2023-02-16T09:29:32.746Z,3.28
2023-02-16T09:30:32.979Z,3.05
2023-02-16T09:31:33.216Z,2.46
2023-02-16T09:32:33.076Z,2.61
2023-02-16T09:33:33.159Z,3.12
2023-02-16T09:34:33.280Z,3.26
2023-02-16T09:35:33.386Z,3.38
2023-02-16T09:36:33.626Z,4.56
2023-02-16T09:37:33.617Z,2.97
2023-02-16T09:38:33.743Z,4.22
2023-02-16T09:39:33.884Z,3.22
2023-02-16T09:40:33.992Z,3.83
2023-02-16T09:41:34.118Z,3.07
2023-02-16T09:42:34.237Z,3.03
2023-02-16T09:43:34.373Z,2.61
2023-02-16T09:44:34.511Z,2.16
2023-02-16T09:45:34.603Z,2.28
2023-02-16T09:47:34.788Z,2.14
2023-02-16T10:07:36.689Z,2.77
2023-02-16T10:08:36.759Z,2.58
2023-02-16T10:09:36.817Z,2.34
2023-02-16T10:10:38.700Z,5.52
2023-02-16T10:11:36.904Z,3.63
2023-02-16T10:12:36.935Z,3.49
2023-02-16T10:13:36.967Z,3.72
2023-02-16T10:14:36.990Z,2.71
2023-02-16T10:15:37.030Z,2.96
2023-02-16T10:16:37.046Z,2.81
2023-02-16T10:17:37.075Z,3.41
2023-02-16T10:18:37.120Z,2.68
2023-02-16T10:21:37.217Z,2.45
2023-02-16T10:22:37.241Z,2.28
2023-02-16T10:23:37.269Z,2.15
2023-02-16T10:24:37.279Z,2.33
2023-02-16T10:25:37.306Z,2.20
2023-02-16T10:26:37.333Z,2.45
2023-02-16T10:27:37.373Z,2.82
2023-02-16T10:28:37.388Z,2.36
2023-02-16T10:29:37.425Z,2.63
2023-02-16T10:30:37.467Z,2.89
2023-02-16T10:31:37.594Z,2.60
2023-02-16T10:32:43.703Z,2.39
2023-02-16T10:33:38.572Z,2.56
2023-02-16T10:34:37.621Z,3.29
2023-02-16T10:35:37.664Z,3.18
2023-02-16T10:36:37.724Z,2.67
2023-02-16T10:37:37.756Z,2.63
2023-02-16T10:39:37.814Z,2.92
2023-02-16T10:40:37.838Z,3.01
2023-02-16T10:41:37.874Z,2.67
2023-02-16T10:42:37.896Z,2.23
2023-02-16T10:43:37.934Z,2.53
2023-02-16T10:44:37.957Z,3.73
2023-02-16T10:45:37.990Z,3.30
2023-02-16T10:46:38.059Z,2.77
2023-02-16T10:47:38.051Z,1.81
2023-02-16T10:48:38.063Z,2.41
2023-02-16T10:49:38.077Z,2.01
2023-02-16T10:50:38.095Z,2.13
2023-02-16T10:51:38.112Z,1.85
2023-02-16T10:52:38.159Z,2.29
2023-02-16T10:53:38.197Z,2.07
2023-02-16T10:54:38.211Z,1.94
2023-02-16T10:55:38.243Z,2.10
2023-02-16T10:56:38.292Z,2.02
2023-02-16T10:57:38.349Z,2.12
2023-02-16T10:58:38.412Z,1.95
2023-02-16T10:59:38.496Z,2.04
2023-02-16T11:00:38.586Z,2.00
2023-02-16T11:01:38.730Z,2.20
2023-02-16T11:02:38.684Z,2.26
2023-02-16T11:03:38.787Z,1.98
2023-02-16T11:04:38.890Z,2.08
2023-02-16T11:05:38.910Z,1.51
2023-02-16T11:06:38.971Z,1.66
2023-02-16T11:07:39.038Z,2.15
2023-02-16T11:08:39.093Z,2.20
2023-02-16T11:10:39.245Z,1.90
2023-02-16T13:53:47.843Z,1.15
2023-02-16T13:54:47.982Z,1.55
2023-02-16T13:55:48.091Z,1.49
2023-02-16T13:56:48.283Z,1.17
2023-02-16T13:57:50.576Z,1.49
2023-02-16T13:58:48.349Z,1.77
2023-02-16T13:59:48.276Z,1.43
2023-02-16T14:00:48.188Z,1.76
2023-02-16T14:01:48.092Z,1.72
2023-02-16T14:02:48.008Z,2.25
2023-02-16T14:03:48.043Z,2.16
2023-02-16T14:04:48.176Z,1.77
2023-02-16T14:05:48.281Z,2.03
2023-02-16T14:06:48.480Z,1.56
2023-02-16T14:07:48.662Z,2.16
2023-02-16T14:08:48.826Z,1.61
2023-02-16T14:09:48.955Z,1.71
2023-02-16T14:10:49.079Z,1.99
2023-02-16T14:11:49.230Z,1.68
2023-02-16T14:12:49.356Z,2.22
2023-02-16T14:13:49.464Z,1.45
2023-02-16T14:14:50.347Z,1.95
2023-02-16T14:15:49.527Z,2.84
2023-02-16T14:16:49.412Z,1.87
2023-02-16T14:17:49.314Z,2.39
2023-02-16T14:18:49.226Z,1.93
2023-02-16T14:19:49.138Z,1.54
2023-02-16T14:20:50.723Z,1.72
2023-02-16T14:21:48.964Z,1.82
2023-02-16T14:22:48.908Z,1.62
2023-02-16T14:23:48.804Z,1.55
2023-02-16T14:24:48.728Z,1.56
2023-02-16T14:25:48.655Z,1.81
2023-02-16T14:26:48.568Z,2.07
2023-02-16T14:27:48.508Z,1.69
2023-02-16T14:28:48.408Z,1.72
2023-02-16T14:29:48.334Z,1.69
2023-02-16T14:30:48.271Z,1.79
2023-02-16T14:31:48.249Z,1.36
2023-02-16T14:32:48.086Z,1.69
2023-02-16T14:33:47.998Z,1.75
2023-02-16T14:34:47.920Z,1.27
2023-02-16T14:35:47.871Z,1.72
2023-02-16T15:24:47.937Z,2.56
2023-02-16T15:25:48.142Z,2.43
2023-02-16T15:26:48.332Z,2.88
2023-02-16T15:27:48.550Z,2.67
2023-02-16T15:28:48.733Z,3.90
2023-02-16T15:29:48.946Z,3.47
2023-02-16T15:30:49.194Z,3.41
2023-02-16T15:31:49.434Z,3.95
2023-02-16T15:32:49.588Z,4.14
2023-02-16T15:33:49.806Z,3.86
2023-02-16T15:34:50.029Z,3.26
2023-02-16T15:35:50.240Z,3.71
2023-02-16T15:36:50.462Z,3.64
2023-02-16T15:37:50.659Z,3.28
2023-02-16T15:38:50.858Z,2.52
2023-02-16T15:40:08.731Z,3.00
2023-02-16T15:40:52.039Z,2.44
2023-02-16T15:41:51.026Z,2.31
2023-02-16T15:42:50.980Z,2.22
2023-02-16T15:43:50.949Z,2.25
2023-02-16T15:44:50.924Z,1.92
2023-02-16T15:45:50.886Z,2.02
2023-02-16T15:46:50.912Z,1.89
2023-02-16T15:47:50.836Z,1.92
2023-02-16T15:48:50.813Z,2.26
2023-02-16T15:49:50.777Z,2.01
2023-02-16T15:50:50.747Z,2.39
2023-02-16T15:51:50.723Z,2.57
2023-02-16T15:52:50.729Z,2.42
2023-02-16T15:53:50.775Z,1.71
2023-02-16T15:54:50.796Z,2.36
2023-02-16T15:55:50.832Z,1.88
2023-02-16T15:56:50.882Z,2.22
2023-02-16T15:57:50.904Z,2.87
2023-02-16T15:58:50.930Z,2.62
2023-02-16T15:59:50.918Z,2.24
2023-02-16T16:00:50.912Z,2.31
2023-02-16T16:01:50.936Z,2.69
2023-02-16T16:02:50.929Z,2.72
2023-02-16T16:03:51.203Z,2.82
2023-02-16T16:04:51.824Z,3.38
2023-02-16T17:09:17.867Z,2.53
2023-02-16T17:10:18.043Z,2.95
2023-02-16T17:11:18.219Z,2.64
2023-02-16T17:12:18.420Z,3.24
2023-02-16T17:13:18.611Z,2.87
2023-02-16T17:14:18.796Z,2.81
2023-02-16T17:15:18.959Z,2.83
2023-02-16T17:16:19.192Z,3.04
2023-02-16T17:17:19.333Z,2.88
2023-02-16T17:18:19.519Z,2.48
2023-02-16T17:19:19.692Z,2.55
2023-02-16T17:20:19.845Z,2.59
2023-02-16T17:21:20.021Z,3.05
2023-02-16T17:22:20.240Z,2.80
2023-02-16T17:23:20.356Z,2.37
2023-02-16T17:24:20.556Z,2.64
2023-02-16T17:25:20.748Z,3.16
2023-02-16T17:26:20.892Z,3.43
2023-02-16T17:27:21.067Z,3.07
2023-02-16T17:28:21.245Z,3.55
2023-02-16T17:29:21.421Z,3.46
2023-02-16T17:30:21.666Z,4.29
2023-02-16T17:31:21.874Z,4.18
2023-02-16T17:32:22.028Z,4.86
2023-02-16T17:33:22.066Z,4.78
2023-02-16T17:34:22.238Z,5.86
2023-02-16T17:35:22.510Z,5.87
2023-02-16T17:36:22.608Z,5.32
2023-02-16T17:37:22.734Z,4.64
2023-02-16T17:38:22.892Z,5.59
2023-02-16T17:39:23.056Z,10.36
2023-02-16T17:40:23.228Z,12.98
2023-02-16T17:41:23.395Z,14.31
2023-02-16T17:42:23.573Z,13.10
2023-02-16T18:57:27.815Z,5.93
2023-02-16T18:58:27.849Z,5.84
2023-02-16T18:59:27.886Z,6.73
2023-02-16T19:00:27.939Z,6.70
2023-02-16T19:01:27.986Z,8.00
2023-02-16T19:02:28.137Z,7.07
2023-02-16T19:03:30.214Z,7.42
2023-02-16T19:04:28.290Z,7.28
2023-02-16T19:05:28.295Z,6.81
2023-02-16T19:06:28.355Z,6.17
2023-02-16T19:07:28.396Z,6.38
2023-02-16T19:08:28.447Z,6.39
2023-02-16T19:09:28.488Z,5.34
2023-02-16T19:10:28.520Z,5.01
2023-02-16T19:11:28.581Z,6.09
2023-02-16T19:12:28.658Z,4.67
2023-02-16T19:13:28.741Z,4.95
2023-02-16T19:14:28.844Z,5.67
2023-02-16T19:15:28.931Z,5.80
2023-02-16T19:16:29.004Z,5.73
2023-02-16T19:17:29.096Z,5.16
2023-02-16T19:18:29.237Z,5.82
2023-02-16T19:19:30.954Z,11.38
2023-02-16T19:20:29.358Z,10.95
2023-02-16T19:21:29.414Z,7.94
2023-02-16T19:22:29.461Z,8.03
2023-02-16T19:23:29.509Z,8.40
2023-02-16T19:24:29.526Z,8.10
2023-02-16T21:25:37.890Z,11.79
2023-02-16T21:26:38.041Z,13.14
2023-02-16T21:27:38.135Z,12.79
2023-02-16T21:28:38.190Z,13.60
2023-02-16T21:30:38.299Z,13.67
2023-02-16T21:31:38.489Z,13.74
2023-02-16T21:32:38.479Z,13.74
2023-02-16T21:33:38.639Z,13.19
2023-02-16T21:34:38.722Z,12.76
2023-02-16T21:35:38.781Z,12.70
2023-02-16T21:36:38.886Z,12.69
2023-02-16T21:37:38.888Z,11.90
2023-02-16T21:38:38.947Z,12.09
2023-02-16T21:39:39.059Z,11.40
2023-02-16T21:40:39.220Z,11.58
2023-02-16T21:41:39.262Z,9.66
2023-02-16T21:42:39.321Z,8.91
2023-02-16T21:43:39.365Z,8.66
2023-02-16T21:44:39.399Z,8.43
2023-02-16T21:45:39.459Z,8.71
2023-02-16T21:46:39.544Z,8.81
2023-02-16T21:47:39.664Z,8.89
2023-02-16T21:48:39.729Z,10.15
2023-02-16T21:49:39.830Z,9.08
2023-02-16T21:50:39.969Z,9.36
2023-02-16T21:51:40.053Z,9.70
2023-02-16T21:52:40.162Z,9.02
2023-02-16T21:53:40.267Z,10.55
2023-02-16T21:54:40.376Z,10.26
2023-02-16T21:55:40.457Z,9.69
2023-02-16T21:56:40.550Z,9.29
2023-02-16T21:57:40.652Z,9.43
2023-02-16T21:58:40.826Z,9.34
2023-02-16T21:59:40.834Z,9.19
2023-02-16T22:00:40.967Z,9.63
2023-02-16T22:01:41.020Z,9.69
2023-02-16T22:02:41.131Z,8.69
2023-02-16T22:03:41.268Z,10.34
2023-02-16T22:04:41.400Z,10.83
2023-02-16T22:05:41.557Z,9.63
2023-02-16T22:06:41.683Z,8.38
2023-02-16T22:07:41.823Z,9.53
2023-02-16T22:08:41.917Z,9.14
2023-02-16T22:09:41.979Z,9.44
2023-02-16T22:10:42.055Z,9.20
2023-02-16T22:11:42.132Z,9.37
2023-02-16T22:12:42.212Z,10.30
2023-02-16T23:09:47.991Z,10.78
2023-02-16T23:10:48.169Z,10.56
2023-02-16T23:11:48.388Z,10.16
2023-02-16T23:12:48.607Z,8.49
2023-02-16T23:13:48.807Z,8.60
2023-02-16T23:14:49.015Z,8.21
2023-02-16T23:15:49.197Z,7.55
2023-02-16T23:16:49.440Z,6.40
2023-02-16T23:17:49.586Z,6.63
2023-02-16T23:18:49.799Z,5.36
2023-02-16T23:19:50.033Z,5.24
2023-02-16T23:20:50.233Z,5.64
2023-02-16T23:21:50.422Z,5.32
2023-02-16T23:22:50.650Z,5.08
2023-02-16T23:23:50.902Z,4.83
2023-02-16T23:24:51.089Z,5.41
2023-02-16T23:25:51.289Z,7.60
2023-02-16T23:26:51.508Z,7.86
2023-02-16T23:27:51.682Z,8.50
2023-02-16T23:28:51.851Z,7.51
2023-02-16T23:29:51.954Z,8.01
2023-02-16T23:30:52.102Z,6.55
2023-02-16T23:31:52.185Z,4.93
2023-02-16T23:32:52.262Z,5.48
2023-02-16T23:33:52.407Z,5.41
2023-02-16T23:34:52.494Z,4.64
2023-02-16T23:35:52.583Z,5.12
2023-02-16T23:36:52.662Z,4.32
2023-02-16T23:37:52.726Z,3.87
2023-02-16T23:38:52.788Z,4.38
2023-02-16T23:39:52.836Z,4.38
2023-02-16T23:40:52.911Z,4.00
2023-02-16T23:41:53.007Z,4.35
2023-02-16T23:42:53.121Z,4.40
2023-02-16T23:43:53.234Z,4.48
2023-02-16T23:44:53.359Z,4.72
2023-02-16T23:45:53.500Z,5.71
2023-02-16T23:46:53.678Z,6.95
2023-02-16T23:47:53.707Z,6.60
2023-02-16T23:48:53.905Z,5.13
2023-02-16T23:49:53.951Z,5.58
2023-02-16T23:50:54.074Z,5.21
2023-02-16T23:51:54.185Z,5.75
